Calhoun, Mississippi
Current Conditions -  °F | °C
As of 6:15 PM on Wednesday 28 Jan 2015 (Local Time) from KPIB Reporting Station
Clear Clear  
Wind Chill: 50°   Ceiling: Unl
Heat Index: 50°   Visibility: 10mi
Dew Point: 39°   Wind: 0mph
Humidity: 66%   Direction: NA
Pressure: 30.24"   Gusts: NA
Location:  31.6875°N, 89.1116°W
Report Text: KPIB 290015Z AUTO 00000KT 10SM CLR 10/04 A3024 RMK AO1
Loading
Personal Weather Stations






























Interactive Weather Map New forecast layout! Learn more

10-Day Weather Forecast

Advertisements
Track Severe Weather on mobile